Time;durP1;ratioP1;P1;durP2;ratioP2;P2;SDS_P1;SDS_P2;PMS_P1;PMS_P2;Temp;Humidity;BMP_temperature;BMP_pressure;BME280_temperature;BME280_humidity;BME280_pressure;Samples;Min_cycle;Max_cycle;Signal;HPM_P1;HPM_P2
2021/12/07 00:02:05;;;;;;;52.10;22.38;;;-2.30;99.90;;;-2.39;100.00;98703.78;5027195;27;130297;-77
2021/12/07 00:04:34;;;;;;;46.70;20.20;;;-2.30;99.90;;;-2.43;100.00;98692.03;5015339;27;119839;-76
2021/12/07 00:07:04;;;;;;;51.53;21.70;;;-2.40;99.90;;;-2.50;100.00;98702.06;5042073;27;119604;-75
2021/12/07 00:09:35;;;;;;;51.97;20.77;;;-2.40;99.90;;;-2.44;100.00;98695.75;5018313;27;129292;-76
2021/12/07 00:12:06;;;;;;;54.53;21.55;;;-2.40;99.90;;;-2.45;100.00;98707.41;5030116;27;129602;-75
2021/12/07 00:14:39;;;;;;;51.00;20.45;;;-2.40;99.90;;;-2.51;100.00;98709.19;5012588;27;119919;-75
2021/12/07 00:17:09;;;;;;;50.88;21.05;;;-2.40;99.90;;;-2.65;100.00;98699.97;5020733;28;118553;-77
2021/12/07 00:19:38;;;;;;;51.72;20.98;;;-2.40;99.90;;;-2.39;100.00;98691.28;5027451;27;129928;-76
2021/12/07 00:22:10;;;;;;;46.03;19.95;;;-2.40;99.90;;;-2.49;100.00;98687.69;5026510;27;129405;-78
2021/12/07 00:24:41;;;;;;;46.03;21.85;;;-2.40;99.90;;;-2.44;100.00;98677.16;5030382;27;122744;-78
2021/12/07 00:27:11;;;;;;;45.47;20.27;;;-2.40;99.90;;;-2.44;100.00;98685.13;5021781;27;122144;-76
2021/12/07 00:29:40;;;;;;;46.28;19.00;;;-2.40;99.90;;;-2.34;100.00;98685.25;4995807;27;129293;-76
2021/12/07 00:32:23;;;;;;;47.97;19.55;;;-2.50;99.90;;;-2.47;100.00;98686.41;5013053;27;130167;-77
2021/12/07 00:37:44;;;;;;;43.30;20.15;;;-2.50;99.90;;;-2.81;100.00;98672.41;5016509;27;119604;-76
2021/12/07 00:40:17;;;;;;;48.63;20.33;;;-2.50;99.90;;;-2.63;100.00;98664.16;5033616;27;130168;-76
2021/12/07 00:42:48;;;;;;;47.75;20.05;;;-2.50;99.90;;;-2.66;100.00;98667.31;5026691;27;103100;-76
2021/12/07 00:45:21;;;;;;;46.90;20.15;;;-2.50;99.90;;;-2.78;100.00;98678.03;5027738;27;119590;-76
2021/12/07 00:47:52;;;;;;;46.65;19.67;;;-2.50;99.90;;;-2.70;100.00;98676.78;5024520;27;119319;-75
2021/12/07 00:50:25;;;;;;;45.13;19.10;;;-2.50;99.90;;;-2.85;100.00;98679.22;5015094;27;129747;-75
2021/12/07 00:52:54;;;;;;;42.95;19.77;;;-2.60;99.90;;;-2.87;100.00;98676.03;5021595;27;128659;-75
2021/12/07 00:55:30;;;;;;;51.28;21.52;;;-2.60;99.90;;;-2.99;100.00;98674.28;5011193;27;118379;-75
2021/12/07 00:58:00;;;;;;;47.10;19.43;;;-2.60;99.90;;;-2.84;100.00;98663.06;5018086;28;119456;-76
2021/12/07 01:00:31;;;;;;;40.88;18.52;;;-2.60;99.90;;;-2.93;100.00;98653.91;5009955;27;130581;-76
2021/12/07 01:03:01;;;;;;;43.47;19.65;;;-2.60;99.90;;;-3.00;100.00;98656.72;5023883;27;129813;-76
2021/12/07 01:05:33;;;;;;;45.40;18.92;;;-2.60;99.90;;;-3.19;100.00;98658.03;5026142;27;119043;-76
2021/12/07 01:08:48;;;;;;;44.38;19.10;;;-2.70;99.90;;;-3.01;100.00;98660.41;5034662;27;118998;-75
2021/12/07 01:25:09;;;;;;;38.78;17.25;;;-2.80;99.90;;;-3.31;100.00;98655.47;5018910;27;129669;-76
2021/12/07 01:27:40;;;;;;;42.67;17.42;;;-2.90;99.90;;;-3.36;100.00;98650.88;5007957;27;117046;-75
2021/12/07 01:30:16;;;;;;;45.83;18.77;;;-2.90;99.90;;;-3.26;100.00;98648.41;5016052;27;119127;-75
2021/12/07 01:38:37;;;;;;;43.38;17.38;;;-3.00;99.90;;;-3.32;100.00;98649.34;5097998;27;102607;-75
2021/12/07 01:41:19;;;;;;;38.72;17.38;;;-3.00;99.90;;;-3.45;100.00;98654.97;5082467;27;115848;-74
2021/12/07 01:44:19;;;;;;;39.72;17.27;;;-3.00;99.90;;;-3.47;100.00;98670.34;5082413;27;129492;-73
2021/12/07 01:52:39;;;;;;;37.72;17.50;;;-3.10;99.90;;;-3.50;100.00;98673.47;5039832;27;114721;-73
2021/12/07 01:59:32;;;;;;;39.08;17.52;;;-3.10;99.90;;;-3.55;100.00;98694.56;5074025;27;129775;-73
2021/12/07 02:01:00;;;;;;;40.03;18.08;;;-3.20;99.90;;;-3.52;100.00;98696.75;5076031;27;118155;-73
2021/12/07 02:03:29;;;;;;;37.50;16.67;;;-3.20;99.90;;;-3.66;100.00;98697.06;5068824;27;115884;-73
2021/12/07 02:05:58;;;;;;;42.60;17.60;;;-3.20;99.90;;;-3.49;100.00;98693.63;5058777;27;129769;-73
2021/12/07 02:08:27;;;;;;;37.50;17.58;;;-3.20;99.90;;;-3.71;100.00;98693.50;5074652;27;129600;-73
2021/12/07 02:11:01;;;;;;;46.22;17.95;;;-3.30;99.90;;;-3.70;100.00;98701.22;5060192;27;118605;-73
2021/12/07 02:16:18;;;;;;;43.72;19.05;;;-3.40;99.90;;;-3.95;100.00;98714.81;5072352;27;130599;-73
2021/12/07 02:18:48;;;;;;;37.95;17.83;;;-3.40;99.90;;;-4.01;100.00;98711.25;5075054;27;129559;-74
2021/12/07 02:21:21;;;;;;;37.63;17.27;;;-3.50;99.90;;;-3.82;100.00;98719.03;5063530;27;118828;-74
2021/12/07 02:23:55;;;;;;;40.95;17.42;;;-3.50;99.90;;;-4.09;100.00;98719.56;5071847;27;116485;-74
2021/12/07 02:26:24;;;;;;;41.22;17.30;;;-3.50;99.90;;;-4.15;100.00;98720.50;5076577;27;129954;-74
2021/12/07 02:28:53;;;;;;;38.55;16.65;;;-3.50;99.90;;;-4.20;100.00;98725.72;5080262;27;130244;-75
2021/12/07 02:31:23;;;;;;;37.20;16.08;;;-3.60;99.90;;;-4.17;100.00;98717.31;5077061;27;119157;-74
2021/12/07 02:33:53;;;;;;;39.40;18.08;;;-3.60;99.90;;;-3.94;100.00;98720.91;5079431;27;115656;-74
2021/12/07 02:36:24;;;;;;;38.25;17.30;;;-3.60;99.90;;;-3.81;100.00;98721.44;5069588;27;129969;-75
2021/12/07 02:38:54;;;;;;;35.55;16.38;;;-3.60;99.90;;;-3.70;100.00;98711.03;5080226;27;129331;-75
2021/12/07 02:41:23;;;;;;;41.00;17.73;;;-3.70;99.90;;;-4.14;100.00;98722.13;5071321;27;118745;-75
2021/12/07 02:43:52;;;;;;;40.70;15.13;;;-3.80;99.90;;;-4.50;100.00;98729.34;5073566;27;116292;-75
2021/12/07 02:46:22;;;;;;;46.47;17.05;;;-3.90;99.90;;;-4.29;100.00;98724.47;5076308;27;129674;-75
2021/12/07 02:48:55;;;;;;;44.58;18.30;;;-3.90;99.90;;;-4.51;100.00;98728.50;5056242;27;129958;-75
2021/12/07 02:51:25;;;;;;;43.45;17.15;;;-4.00;99.90;;;-4.22;100.00;98731.25;5065451;27;118962;-75
2021/12/07 02:53:57;;;;;;;39.60;16.30;;;-4.00;99.90;;;-4.03;100.00;98731.91;5051122;27;114714;-76
2021/12/07 02:56:26;;;;;;;40.65;16.20;;;-3.90;99.90;;;-3.93;100.00;98733.94;5050995;27;130064;-76
2021/12/07 02:59:01;;;;;;;47.13;17.13;;;-3.90;99.90;;;-3.82;100.00;98740.25;5066365;27;130601;-76
2021/12/07 03:01:34;;;;;;;38.78;15.25;;;-3.90;99.90;;;-3.84;100.00;98747.63;5042578;27;118255;-74
2021/12/07 03:04:08;;;;;;;38.17;14.80;;;-3.90;99.90;;;-3.78;100.00;98745.91;5044035;27;114970;-75
2021/12/07 03:07:01;;;;;;;41.83;15.27;;;-4.00;99.90;;;-3.88;100.00;98746.47;5064599;27;129724;-75
2021/12/07 03:26:29;;;;;;;36.22;14.27;;;-4.10;99.30;;;-4.22;99.69;98751.66;5060165;27;115211;-75
2021/12/07 03:29:00;;;;;;;33.13;14.25;;;-4.10;98.60;;;-4.70;100.00;98756.97;5053856;27;129889;-76
2021/12/07 03:31:30;;;;;;;32.88;13.52;;;-4.20;96.30;;;-4.57;100.00;98761.22;5051121;27;129267;-76
2021/12/07 03:34:02;;;;;;;33.95;13.82;;;-4.20;97.00;;;-4.61;100.00;98760.09;5054669;27;118508;-76
2021/12/07 03:36:35;;;;;;;30.98;13.88;;;-4.20;96.20;;;-4.93;100.00;98752.44;5065504;27;116128;-76
2021/12/07 03:39:08;;;;;;;34.65;13.23;;;-4.40;95.10;;;-5.16;100.00;98763.00;5056888;27;130000;-75
2021/12/07 03:41:38;;;;;;;40.70;14.27;;;-4.40;95.10;;;-4.94;100.00;98750.84;5062395;27;132960;-75
2021/12/07 03:44:07;;;;;;;33.38;14.52;;;-4.50;95.80;;;-4.93;100.00;98756.94;5067158;27;119785;-75
2021/12/07 03:46:37;;;;;;;36.25;13.93;;;-4.50;95.60;;;-5.02;100.00;98753.03;5056817;27;115873;-76
2021/12/07 03:49:06;;;;;;;32.47;14.00;;;-4.50;95.90;;;-5.07;100.00;98756.34;5059880;27;130113;-76
2021/12/07 03:51:34;;;;;;;32.92;13.32;;;-4.50;95.70;;;-5.20;100.00;98762.66;5063322;27;128858;-75
2021/12/07 03:54:06;;;;;;;32.60;14.00;;;-4.50;95.80;;;-4.91;100.00;98755.69;5047070;27;118890;-76
2021/12/07 03:56:35;;;;;;;28.13;13.00;;;-4.50;96.10;;;-4.68;100.00;98755.94;5055366;27;115953;-76
2021/12/07 03:59:06;;;;;;;34.42;14.38;;;-4.50;96.30;;;-4.66;100.00;98756.50;5054456;27;130143;-75
2021/12/07 04:01:35;;;;;;;32.92;13.57;;;-4.50;96.30;;;-4.56;100.00;98762.03;5072631;27;129493;-76
2021/12/07 04:04:05;;;;;;;38.70;13.82;;;-4.40;96.30;;;-4.46;100.00;98764.91;5041433;27;117920;-76
2021/12/07 04:06:33;;;;;;;34.55;15.10;;;-4.50;96.30;;;-4.45;99.50;98761.22;5048760;27;117338;-76
2021/12/07 04:09:05;;;;;;;35.08;14.35;;;-4.50;95.80;;;-4.38;99.41;98764.56;5049368;27;129262;-75
2021/12/07 04:11:35;;;;;;;32.75;14.30;;;-4.50;95.90;;;-4.95;100.00;98764.31;5063774;27;132205;-76
2021/12/07 04:14:04;;;;;;;32.40;13.95;;;-4.60;94.50;;;-5.09;100.00;98758.44;5057131;27;118890;-75
2021/12/07 04:16:34;;;;;;;40.60;14.85;;;-4.70;95.00;;;-5.17;100.00;98762.22;5072250;27;115990;-76
2021/12/07 04:19:11;;;;;;;32.60;13.70;;;-4.70;95.00;;;-5.26;100.00;98764.34;5063727;27;129720;-75
2021/12/07 04:21:40;;;;;;;35.45;13.43;;;-4.70;94.60;;;-5.15;100.00;98764.63;5081159;27;129517;-75
2021/12/07 04:24:10;;;;;;;37.20;13.95;;;-4.80;94.90;;;-5.55;100.00;98768.63;5057975;27;119498;-74
2021/12/07 04:26:40;;;;;;;36.95;14.75;;;-4.80;94.70;;;-5.57;100.00;98777.84;5064928;27;115888;-76
2021/12/07 04:29:08;;;;;;;39.92;14.23;;;-4.80;95.10;;;-5.45;100.00;98770.75;5064767;27;130561;-76
2021/12/07 04:31:37;;;;;;;39.90;14.93;;;-4.80;95.20;;;-5.43;100.00;98776.63;5055271;27;129206;-76
2021/12/07 04:34:06;;;;;;;39.47;15.60;;;-4.90;94.80;;;-5.40;100.00;98778.00;5060429;27;118791;-76
2021/12/07 04:36:35;;;;;;;37.00;14.23;;;-4.80;94.90;;;-5.51;100.00;98790.16;5056601;27;115603;-76
2021/12/07 04:39:04;;;;;;;34.97;13.23;;;-4.90;94.80;;;-5.73;100.00;98785.34;5063145;27;129355;-76
2021/12/07 04:41:34;;;;;;;36.20;15.48;;;-4.90;95.30;;;-5.52;100.00;98791.97;5058571;27;129774;-76
2021/12/07 04:44:04;;;;;;;40.55;15.43;;;-4.90;95.30;;;-5.54;100.00;98804.63;5055026;27;118799;-76
2021/12/07 04:46:41;;;;;;;41.10;15.32;;;-4.90;95.20;;;-5.59;100.00;98791.28;5060631;27;115252;-75
2021/12/07 04:49:51;;;;;;;34.53;14.32;;;-4.90;95.20;;;-5.53;100.00;98790.38;5067002;27;129798;-76
2021/12/07 04:57:59;;;;;;;29.23;13.05;;;-4.90;95.10;;;-5.85;100.00;98790.56;5010415;27;114922;-76
2021/12/07 05:00:30;;;;;;;38.22;14.70;;;-5.00;95.00;;;-5.74;100.00;98789.00;5066214;27;129949;-76
2021/12/07 05:03:03;;;;;;;26.65;12.70;;;-5.00;94.60;;;-5.69;100.00;98785.69;5059713;27;129935;-75
2021/12/07 05:05:38;;;;;;;30.33;12.38;;;-5.00;93.60;;;-6.03;100.00;98774.75;5062828;27;117906;-76
2021/12/07 05:08:11;;;;;;;30.70;12.93;;;-5.10;94.40;;;-5.94;100.00;98786.59;5046327;27;115905;-76
2021/12/07 05:11:10;;;;;;;31.75;12.98;;;-5.10;95.20;;;-6.08;100.00;98783.34;5062877;27;130421;-76
2021/12/07 05:13:34;;;;;;;25.27;11.25;;;-5.20;95.00;;;-6.16;100.00;98802.91;5065206;27;129855;-76
2021/12/07 05:16:27;;;;;;;25.58;11.15;;;-5.20;94.10;;;-6.21;100.00;98810.69;5056211;27;118730;-76
2021/12/07 05:19:14;;;;;;;31.10;12.38;;;-5.30;94.90;;;-6.28;100.00;98788.81;5045024;27;115885;-75
2021/12/07 05:24:28;;;;;;;24.08;11.52;;;-5.40;95.00;;;-6.46;100.00;98786.97;5063329;27;129917;-76
2021/12/07 05:38:01;;;;;;;26.88;12.27;;;-5.40;94.90;;;-6.24;100.00;98811.13;5051563;27;119349;-75
2021/12/07 05:40:34;;;;;;;25.67;11.55;;;-5.40;94.60;;;-6.16;100.00;98818.78;5053172;27;115819;-75
2021/12/07 05:43:04;;;;;;;29.35;12.73;;;-5.40;94.50;;;-6.00;100.00;98806.84;5047941;27;129111;-75
2021/12/07 05:45:38;;;;;;;28.75;12.15;;;-5.40;94.50;;;-6.00;100.00;98819.22;5046666;27;130570;-75
2021/12/07 05:48:08;;;;;;;30.38;11.65;;;-5.40;94.30;;;-6.10;100.00;98809.16;5056687;27;117702;-75
2021/12/07 05:50:42;;;;;;;27.67;11.73;;;-5.40;94.00;;;-6.07;100.00;98810.56;5056228;27;115758;-75
2021/12/07 05:53:13;;;;;;;27.45;11.85;;;-5.40;94.00;;;-6.03;100.00;98806.44;5050725;27;129860;-74
2021/12/07 05:55:43;;;;;;;28.95;12.32;;;-5.40;93.90;;;-5.93;100.00;98811.22;5054396;27;128635;-76
2021/12/07 05:58:12;;;;;;;30.13;13.07;;;-5.40;93.70;;;-5.99;100.00;98823.50;5054711;27;118728;-75
2021/12/07 06:00:45;;;;;;;30.10;12.70;;;-5.40;94.10;;;-5.98;100.00;98830.41;5053894;27;115586;-75
2021/12/07 06:03:21;;;;;;;34.50;13.15;;;-5.40;93.90;;;-6.12;100.00;98831.53;5053191;27;130419;-76
2021/12/07 06:05:49;;;;;;;28.90;12.65;;;-5.40;93.20;;;-5.93;100.00;98817.28;5044573;27;129630;-75
2021/12/07 06:08:19;;;;;;;31.05;13.32;;;-5.30;93.80;;;-5.82;100.00;98824.47;5053153;27;118933;-76
2021/12/07 06:10:48;;;;;;;30.52;12.85;;;-5.30;93.50;;;-5.80;100.00;98827.72;5053482;27;116003;-76
2021/12/07 06:13:17;;;;;;;28.92;12.48;;;-5.30;93.40;;;-5.71;100.00;98827.41;5063999;27;129896;-76
2021/12/07 06:15:48;;;;;;;26.17;11.85;;;-5.20;93.50;;;-5.60;100.00;98822.19;5062205;27;129694;-76
2021/12/07 06:18:17;;;;;;;33.45;12.88;;;-5.30;92.30;;;-5.67;100.00;98837.34;5054179;27;118979;-76
2021/12/07 06:20:45;;;;;;;25.02;11.73;;;-5.20;92.10;;;-5.96;100.00;98838.88;5051293;27;115724;-76
2021/12/07 06:23:17;;;;;;;27.73;13.05;;;-5.30;91.40;;;-5.96;100.00;98844.94;5053899;27;129181;-76
2021/12/07 06:25:49;;;;;;;33.95;16.15;;;-5.30;92.30;;;-5.84;100.00;98852.19;5062570;27;129316;-76
2021/12/07 06:28:19;;;;;;;25.30;13.27;;;-5.30;92.20;;;-5.72;100.00;98854.88;5066397;27;119123;-77
2021/12/07 06:30:50;;;;;;;33.28;15.80;;;-5.20;92.50;;;-5.74;100.00;98859.59;5067862;27;116408;-76
2021/12/07 06:33:23;;;;;;;35.15;16.15;;;-5.20;92.30;;;-5.84;100.00;98860.91;5068450;27;129803;-76
2021/12/07 06:35:57;;;;;;;36.13;14.65;;;-5.20;91.80;;;-6.05;100.00;98864.00;5066249;27;129959;-75
2021/12/07 06:38:26;;;;;;;34.28;14.88;;;-5.20;92.10;;;-5.84;100.00;98868.03;5063178;27;119059;-75
2021/12/07 06:40:57;;;;;;;45.22;18.27;;;-5.20;92.60;;;-5.59;100.00;98875.88;5060613;27;116001;-76
2021/12/07 06:43:25;;;;;;;50.72;20.10;;;-5.10;92.80;;;-5.61;100.00;98872.63;5067488;27;130520;-78
2021/12/07 06:46:00;;;;;;;48.65;19.10;;;-5.10;92.40;;;-5.69;100.00;98872.94;5051272;27;130299;-77
2021/12/07 06:48:33;;;;;;;36.95;16.27;;;-5.10;92.30;;;-5.32;100.00;98859.69;5065776;27;119049;-75
2021/12/07 06:51:05;;;;;;;42.20;17.02;;;-5.00;92.50;;;-5.54;100.00;98864.66;5065111;27;115952;-75
2021/12/07 06:53:36;;;;;;;33.22;14.93;;;-5.00;91.80;;;-5.27;100.00;98867.75;5058682;27;130235;-74
2021/12/07 06:56:08;;;;;;;32.30;15.30;;;-5.00;91.10;;;-5.41;100.00;98867.09;5059479;27;129589;-75
2021/12/07 06:58:39;;;;;;;36.70;16.48;;;-5.00;90.10;;;-5.27;100.00;98867.75;5052615;27;118148;-75
2021/12/07 07:01:11;;;;;;;34.28;16.25;;;-4.90;89.10;;;-5.34;99.54;98867.03;5068383;27;115202;-75
2021/12/07 07:03:41;;;;;;;42.15;20.25;;;-4.90;86.30;;;-5.29;100.00;98869.81;5066681;27;128493;-75
2021/12/07 07:06:10;;;;;;;50.63;22.90;;;-5.00;87.30;;;-5.48;100.00;98877.78;5059259;27;130555;-72
2021/12/07 07:08:39;;;;;;;45.30;19.30;;;-5.00;85.00;;;-5.44;100.00;98878.13;5055078;27;119848;-75
2021/12/07 07:11:07;;;;;;;32.58;15.48;;;-5.00;83.00;;;-5.30;98.53;98873.47;5060751;27;115905;-75
2021/12/07 07:13:36;;;;;;;32.88;14.65;;;-5.00;80.90;;;-5.61;98.54;98883.22;5061503;27;129842;-74
2021/12/07 07:16:06;;;;;;;32.95;15.40;;;-5.10;78.40;;;-5.58;99.66;98872.19;5055563;27;129720;-74
2021/12/07 07:18:37;;;;;;;41.33;18.10;;;-5.10;79.60;;;-5.51;98.77;98883.50;5061969;27;118789;-75
2021/12/07 07:21:06;;;;;;;46.78;20.63;;;-5.00;78.80;;;-5.71;99.39;98885.56;5062878;27;116100;-75
2021/12/07 07:23:39;;;;;;;37.83;17.48;;;-5.10;80.00;;;-5.65;100.00;98898.72;5051019;27;130815;-74
2021/12/07 07:26:09;;;;;;;38.83;17.17;;;-5.00;79.00;;;-5.14;99.53;98893.22;5048398;27;129622;-74
2021/12/07 07:28:38;;;;;;;39.05;17.75;;;-4.90;81.20;;;-4.78;97.75;98902.91;5063871;27;118095;-75
2021/12/07 07:31:10;;;;;;;42.22;18.27;;;-4.70;81.30;;;-4.96;96.75;98905.63;5065106;27;115874;-75
2021/12/07 07:33:42;;;;;;;37.22;17.92;;;-4.80;76.70;;;-4.99;96.60;98908.72;5045046;27;128841;-76
2021/12/07 07:36:11;;;;;;;42.15;19.58;;;-4.80;75.60;;;-4.65;95.66;98912.50;5058542;27;129784;-75
2021/12/07 07:38:40;;;;;;;36.15;16.35;;;-4.80;77.10;;;-4.95;95.48;98918.63;5057326;27;117464;-75
2021/12/07 07:41:09;;;;;;;40.10;18.35;;;-4.80;74.00;;;-4.61;95.09;98915.50;5063327;27;115807;-75
2021/12/07 07:43:37;;;;;;;39.40;17.50;;;-4.70;75.60;;;-4.42;94.03;98927.66;5055084;27;130593;-75
2021/12/07 07:46:14;;;;;;;35.70;17.23;;;-4.60;75.10;;;-4.94;95.58;98935.31;5047205;27;129806;-75
2021/12/07 07:48:46;;;;;;;46.97;19.73;;;-4.80;73.00;;;-4.83;94.81;98939.88;5078727;27;119221;-75
2021/12/07 07:51:16;;;;;;;37.17;16.40;;;-4.80;73.20;;;-5.32;96.51;98936.41;5059625;27;115798;-75
2021/12/07 07:53:45;;;;;;;35.67;15.18;;;-4.90;73.30;;;-5.39;97.15;98933.00;5058800;27;130200;-75
2021/12/07 07:56:14;;;;;;;36.45;16.55;;;-4.90;74.80;;;-5.32;97.67;98933.75;5051407;27;129867;-75
2021/12/07 07:58:44;;;;;;;37.58;16.02;;;-5.00;78.50;;;-5.21;97.22;98935.66;5062813;27;119199;-75
2021/12/07 08:01:13;;;;;;;37.05;16.30;;;-4.90;73.80;;;-5.20;97.19;98931.97;5061945;27;115862;-75
2021/12/07 08:03:42;;;;;;;42.53;19.83;;;-4.90;74.80;;;-4.95;96.43;98933.72;5057819;27;129672;-75
2021/12/07 08:06:12;;;;;;;42.30;20.50;;;-4.80;72.30;;;-5.30;96.07;98935.16;5062077;27;129663;-75
2021/12/07 08:08:42;;;;;;;46.70;21.73;;;-5.00;70.90;;;-5.12;96.70;98934.31;5064639;27;118507;-75
2021/12/07 08:11:11;;;;;;;56.67;26.20;;;-4.90;74.70;;;-4.67;95.11;98948.19;5048982;27;115819;-75
2021/12/07 08:13:40;;;;;;;47.25;21.02;;;-4.70;75.40;;;-4.29;94.01;98958.41;5057816;27;130249;-75
2021/12/07 08:16:15;;;;;;;43.97;19.35;;;-4.60;74.20;;;-4.21;92.37;98959.94;5058609;27;130072;-75
2021/12/07 08:18:45;;;;;;;36.70;16.08;;;-4.50;70.80;;;-5.10;92.67;98964.00;5041316;27;118400;-75
2021/12/07 08:21:16;;;;;;;41.65;17.73;;;-4.90;61.80;;;-5.35;95.79;98965.94;5060232;27;115855;-75
2021/12/07 08:23:46;;;;;;;42.88;20.55;;;-5.00;68.40;;;-4.76;94.31;98963.59;5057516;27;129885;-74
2021/12/07 08:26:19;;;;;;;47.60;20.02;;;-4.90;71.30;;;-4.73;92.93;98963.94;5058077;27;130258;-74
2021/12/07 08:28:48;;;;;;;43.13;18.70;;;-4.80;66.10;;;-4.90;93.63;98962.94;5055448;27;119264;-74
2021/12/07 08:31:17;;;;;;;46.78;20.50;;;-4.90;65.40;;;-4.96;94.09;98963.84;5060155;27;115731;-74
2021/12/07 08:33:46;;;;;;;46.50;21.33;;;-4.90;66.00;;;-4.77;93.26;98968.09;5052316;27;128805;-74
2021/12/07 08:36:17;;;;;;;47.92;21.00;;;-4.90;66.90;;;-4.88;92.54;98967.00;5057309;27;130001;-74
2021/12/07 08:38:46;;;;;;;44.42;20.45;;;-4.90;62.60;;;-4.76;92.68;98972.34;5078277;27;118497;-74
2021/12/07 08:41:16;;;;;;;48.85;22.73;;;-4.80;66.50;;;-4.58;92.13;98975.97;5064098;27;115682;-74
2021/12/07 08:43:45;;;;;;;46.90;23.15;;;-4.80;61.70;;;-4.66;91.44;98979.72;5060405;27;129823;-74
2021/12/07 08:46:16;;;;;;;42.63;19.15;;;-4.80;60.70;;;-4.23;90.09;98988.50;5059835;27;129723;-74
2021/12/07 08:48:45;;;;;;;40.50;18.67;;;-4.70;59.70;;;-4.57;90.15;98982.88;5046787;27;118254;-74
2021/12/07 08:51:18;;;;;;;39.88;18.98;;;-4.70;56.90;;;-4.20;90.15;98988.06;5060934;27;116717;-74
2021/12/07 08:53:53;;;;;;;38.83;19.77;;;-4.60;61.80;;;-4.59;90.66;98991.06;5054757;27;130476;-74
2021/12/07 09:01:55;;;;;;;;;;;-5.10;59.10;;;-5.16;92.83;98986.06;5062401;27;116066;-74
2021/12/07 09:04:24;;;;;;;42.50;16.30;;;-5.00;62.10;;;-5.13;93.24;98988.25;5043875;27;129870;-74
2021/12/07 09:06:54;;;;;;;42.75;18.73;;;-5.00;61.40;;;-5.22;93.25;98981.63;5054691;27;129597;-74
2021/12/07 09:09:23;;;;;;;38.28;17.88;;;-5.00;63.10;;;-5.14;93.86;98977.88;5060488;27;118866;-74
2021/12/07 09:11:55;;;;;;;33.13;15.75;;;-4.90;63.20;;;-4.47;91.94;98983.16;5046352;27;115545;-74
2021/12/07 09:14:24;;;;;;;34.13;14.48;;;-4.80;65.10;;;-5.09;92.77;98986.78;5078252;27;130404;-75
2021/12/07 09:16:53;;;;;;;28.40;12.77;;;-4.90;60.10;;;-4.97;93.17;98988.69;5061371;27;129819;-74
2021/12/07 09:19:22;;;;;;;32.50;12.93;;;-4.80;59.40;;;-4.96;91.64;98998.25;5061241;27;118837;-75
2021/12/07 09:21:53;;;;;;;31.08;14.55;;;-4.80;57.70;;;-4.53;90.92;98992.00;5038953;27;114851;-75
2021/12/07 09:24:22;;;;;;;38.10;15.98;;;-4.60;57.20;;;-4.90;91.17;99000.00;5052519;27;129788;-74
2021/12/07 09:26:52;;;;;;;31.80;13.93;;;-4.70;55.00;;;-4.39;90.80;98996.06;5063108;27;129142;-75
2021/12/07 09:29:21;;;;;;;34.47;15.10;;;-4.60;57.50;;;-4.53;90.17;99000.75;5060181;27;118888;-75
2021/12/07 09:31:50;;;;;;;26.00;12.50;;;-4.50;54.50;;;-5.09;92.32;99002.66;5053704;27;116308;-75
2021/12/07 09:34:19;;;;;;;29.67;14.05;;;-4.80;56.70;;;-5.30;93.71;99005.75;5060043;27;130253;-74
2021/12/07 09:36:49;;;;;;;28.15;13.35;;;-4.90;60.00;;;-5.34;94.69;98999.31;5063437;27;129119;-74
2021/12/07 09:39:20;;;;;;;26.83;12.23;;;-5.00;61.50;;;-5.37;95.01;98999.75;5048458;27;117970;-75
2021/12/07 09:41:50;;;;;;;28.67;12.48;;;-5.00;63.30;;;-5.39;94.78;99009.72;5076600;27;114847;-77
2021/12/07 09:44:19;;;;;;;25.75;11.45;;;-5.00;62.90;;;-5.32;94.09;99002.53;5052011;27;129786;-76
2021/12/07 09:46:48;;;;;;;29.10;13.43;;;-4.90;59.60;;;-5.27;93.97;99002.66;5056763;27;130197;-75
2021/12/07 09:49:17;;;;;;;33.08;14.70;;;-5.00;62.10;;;-5.51;94.49;98999.88;5055844;27;117889;-75
2021/12/07 09:51:46;;;;;;;36.38;15.20;;;-5.00;62.60;;;-5.43;95.95;98996.13;5064854;27;116258;-75
2021/12/07 09:54:16;;;;;;;27.40;13.55;;;-5.00;65.90;;;-5.42;94.92;99003.84;5055239;27;129228;-74
2021/12/07 09:56:46;;;;;;;35.90;15.35;;;-5.00;64.20;;;-5.27;94.79;99005.31;5044659;27;130023;-76
2021/12/07 09:59:15;;;;;;;32.67;14.80;;;-4.90;63.80;;;-5.12;94.46;99005.75;5061541;27;117997;-75
2021/12/07 10:01:44;;;;;;;34.35;15.57;;;-4.80;63.20;;;-4.65;93.50;99002.53;5049985;27;115968;-74
2021/12/07 10:04:12;;;;;;;34.20;15.85;;;-4.70;65.30;;;-4.68;92.33;99013.56;5063425;27;130113;-74
2021/12/07 10:06:41;;;;;;;33.33;15.10;;;-4.70;58.90;;;-5.09;93.20;99010.59;5038582;27;130450;-75
2021/12/07 10:09:10;;;;;;;35.30;16.45;;;-4.90;58.20;;;-5.48;93.97;99015.28;5053689;27;118969;-74
2021/12/07 10:11:39;;;;;;;34.13;16.38;;;-5.00;59.30;;;-5.17;93.35;99016.19;5049315;27;116097;-75
2021/12/07 10:14:09;;;;;;;33.47;14.18;;;-4.80;58.50;;;-5.28;93.84;99015.09;5059960;27;130566;-75
2021/12/07 10:16:46;;;;;;;32.30;14.32;;;-4.90;57.70;;;-4.88;91.64;99008.53;5063021;27;128229;-74
2021/12/07 10:19:26;;;;;;;41.50;17.35;;;-4.80;56.20;;;-5.16;93.63;99004.56;5058908;27;118870;-75
2021/12/07 10:22:02;;;;;;;32.80;14.43;;;-4.80;57.50;;;-5.44;94.76;99005.91;5059464;27;115770;-75
2021/12/07 10:24:39;;;;;;;33.83;13.63;;;-4.90;58.50;;;-5.32;94.23;99003.31;5064484;27;129947;-74
2021/12/07 10:27:10;;;;;;;36.45;16.73;;;-4.90;56.40;;;-5.11;93.68;99015.31;5065137;27;129337;-74
2021/12/07 10:29:41;;;;;;;29.02;14.27;;;-4.70;56.90;;;-5.00;92.62;99011.13;5057406;27;119178;-74
2021/12/07 10:32:10;;;;;;;33.83;14.07;;;-4.70;55.20;;;-4.84;91.70;99012.38;5049584;27;116304;-75
2021/12/07 10:34:41;;;;;;;36.50;15.30;;;-4.60;54.20;;;-4.39;90.95;99011.97;5060806;27;128805;-75
2021/12/07 10:37:12;;;;;;;30.00;14.43;;;-4.60;56.20;;;-4.67;90.30;99024.97;5059670;27;130063;-74
2021/12/07 10:39:43;;;;;;;31.15;13.52;;;-4.50;51.30;;;-4.66;90.33;99032.69;5065064;27;119020;-74
2021/12/07 10:42:16;;;;;;;30.42;12.30;;;-4.60;52.30;;;-4.84;90.94;99030.88;5064843;27;116505;-75
2021/12/07 10:44:47;;;;;;;33.45;15.02;;;-4.60;50.50;;;-5.27;92.33;99023.84;5066093;27;129375;-74
2021/12/07 10:47:18;;;;;;;29.17;13.43;;;-4.80;52.30;;;-5.24;93.79;99023.38;5058853;27;128674;-75
2021/12/07 10:49:50;;;;;;;35.30;14.38;;;-4.80;56.40;;;-5.13;93.02;99020.00;5040387;27;117914;-75
2021/12/07 10:52:29;;;;;;;26.55;13.32;;;-4.70;54.20;;;-4.92;92.09;99028.56;5052282;27;114762;-75
2021/12/07 10:55:13;;;;;;;31.52;15.10;;;-4.60;53.20;;;-4.96;92.67;99028.16;5054533;27;129770;-74
2021/12/07 10:57:46;;;;;;;37.97;18.80;;;-4.60;54.90;;;-4.64;91.70;99035.13;5063182;27;128568;-74
2021/12/07 11:00:33;;;;;;;34.05;15.80;;;-4.50;52.30;;;-4.75;91.73;99026.91;5064574;27;118093;-75
2021/12/07 11:03:08;;;;;;;40.63;18.40;;;-4.50;52.50;;;-4.25;90.54;99022.38;5050591;27;115957;-75
2021/12/07 11:05:41;;;;;;;48.45;22.92;;;-4.30;53.70;;;-3.84;88.34;99026.03;5056537;27;127007;-75
2021/12/07 11:08:12;;;;;;;36.85;18.40;;;-4.20;49.50;;;-4.02;88.25;99034.88;5054126;27;129732;-75
2021/12/07 11:10:45;;;;;;;62.72;32.78;;;-4.30;48.60;;;-4.32;88.71;99038.38;5057550;27;118825;-75
2021/12/07 11:13:20;;;;;;;45.35;22.65;;;-4.40;48.00;;;-4.11;89.01;99034.41;5068542;27;116228;-75
2021/12/07 11:15:55;;;;;;;46.60;21.88;;;-4.40;51.30;;;-4.10;88.39;99036.00;5051761;27;129934;-75
2021/12/07 11:18:27;;;;;;;52.15;24.50;;;-4.40;51.00;;;-4.08;88.73;99041.91;5064566;27;130366;-74
2021/12/07 11:20:59;;;;;;;47.97;22.13;;;-4.30;50.20;;;-3.84;88.21;99045.41;5066131;27;118793;-75
2021/12/07 11:23:32;;;;;;;48.45;20.45;;;-4.30;50.50;;;-4.18;88.49;99039.00;5065390;27;115568;-75
2021/12/07 11:31:56;;;;;;;43.75;21.58;;;-4.40;51.00;;;-4.62;89.34;99041.03;5000258;28;117926;-74
2021/12/07 11:34:28;;;;;;;36.53;15.65;;;-4.50;50.10;;;-4.72;89.11;99041.53;5049057;27;115658;-74
2021/12/07 11:37:02;;;;;;;41.88;18.40;;;-4.70;49.20;;;-4.82;90.97;99036.75;5046967;27;129997;-74